Time;durP1;ratioP1;P1;durP2;ratioP2;P2;SDS_P1;SDS_P2;PMS_P1;PMS_P2;Temp;Humidity;BMP_temperature;BMP_pressure;BME280_temperature;BME280_humidity;BME280_pressure;Samples;Min_cycle;Max_cycle;Signal;HPM_P1;HPM_P2
2023/11/16 00:00:17;;;;;;;10.15;3.60;;;5.90;99.90;;;;;;2621199;46;20035;31
2023/11/16 00:02:52;;;;;;;7.95;3.35;;;5.90;99.90;;;;;;2603038;54;20745;31
2023/11/16 00:05:27;;;;;;;10.03;5.10;;;5.80;99.90;;;;;;2621876;46;20072;31
2023/11/16 00:08:06;;;;;;;8.85;3.90;;;5.80;99.90;;;;;;2701554;39;20701;31
2023/11/16 00:10:40;;;;;;;8.65;4.40;;;5.80;99.90;;;;;;2603168;54;20054;31
2023/11/16 00:13:17;;;;;;;14.55;4.80;;;5.80;99.90;;;;;;2620832;46;20839;31
2023/11/16 00:15:52;;;;;;;10.52;4.95;;;5.80;99.90;;;;;;2602880;54;20030;31
2023/11/16 00:18:31;;;;;;;10.37;4.10;;;5.80;99.90;;;;;;2602944;54;20082;31
2023/11/16 00:21:06;;;;;;;7.18;4.05;;;5.80;99.90;;;;;;2621145;46;20029;31
2023/11/16 00:23:41;;;;;;;8.07;3.88;;;5.80;99.90;;;;;;2602880;54;20110;31
2023/11/16 00:26:18;;;;;;;6.85;3.28;;;5.90;99.90;;;;;;2621219;46;20080;31
2023/11/16 00:28:59;;;;;;;5.75;2.65;;;5.90;99.90;;;;;;2603090;54;20029;31
2023/11/16 00:31:34;;;;;;;8.32;3.70;;;5.90;99.90;;;;;;2603019;54;20873;31
2023/11/16 00:34:11;;;;;;;7.53;3.88;;;5.90;99.90;;;;;;2602951;54;20501;31
2023/11/16 00:36:46;;;;;;;8.77;4.25;;;5.90;99.90;;;;;;2602817;54;20894;31
2023/11/16 00:39:21;;;;;;;6.93;3.47;;;6.00;99.90;;;;;;2621532;46;20026;31
2023/11/16 00:41:57;;;;;;;7.97;4.20;;;5.90;99.90;;;;;;2602762;54;20871;31
2023/11/16 00:44:32;;;;;;;10.70;4.60;;;6.00;99.90;;;;;;2603047;54;20246;31
2023/11/16 00:47:08;;;;;;;7.38;3.85;;;5.90;99.90;;;;;;2701260;39;20377;31
2023/11/16 00:49:45;;;;;;;8.05;4.25;;;6.00;99.90;;;;;;2602946;54;20037;31
2023/11/16 00:52:20;;;;;;;8.18;4.25;;;6.00;99.90;;;;;;2602869;54;20723;31
2023/11/16 00:54:55;;;;;;;8.77;4.30;;;6.00;99.90;;;;;;2621309;46;20944;31
2023/11/16 00:57:30;;;;;;;13.43;5.35;;;6.00;99.90;;;;;;2602887;54;20026;31
2023/11/16 01:00:10;;;;;;;12.32;5.82;;;6.00;99.90;;;;;;2621204;46;20085;31
2023/11/16 01:02:48;;;;;;;12.23;5.60;;;6.00;99.90;;;;;;2621119;46;20030;31
2023/11/16 01:05:26;;;;;;;13.35;5.75;;;6.00;99.90;;;;;;2701143;39;21459;31
2023/11/16 01:08:03;;;;;;;11.38;5.30;;;6.00;99.90;;;;;;2621387;46;20022;31
2023/11/16 01:10:37;;;;;;;9.65;4.25;;;6.00;99.90;;;;;;2602893;54;20773;31
2023/11/16 01:13:12;;;;;;;6.88;3.65;;;6.00;99.90;;;;;;2602675;54;20026;31
2023/11/16 01:15:48;;;;;;;10.52;4.82;;;6.10;99.90;;;;;;2621490;46;20880;31
2023/11/16 01:18:27;;;;;;;12.90;4.45;;;6.10;99.90;;;;;;2621091;46;20031;31
2023/11/16 01:21:08;;;;;;;6.63;3.63;;;6.10;99.90;;;;;;2602840;54;20902;31
2023/11/16 01:26:25;;;;;;;8.25;3.75;;;6.20;99.90;;;;;;2701215;39;21469;31
2023/11/16 01:29:08;;;;;;;12.30;5.55;;;6.20;99.90;;;;;;2621358;46;20113;31
2023/11/16 01:31:43;;;;;;;10.10;5.65;;;6.20;99.90;;;;;;2602540;54;20644;31
2023/11/16 01:34:18;;;;;;;8.70;4.70;;;6.20;99.90;;;;;;2621089;46;20868;31
2023/11/16 01:36:55;;;;;;;10.60;3.97;;;6.20;99.90;;;;;;2602585;54;20547;31
2023/11/16 01:39:31;;;;;;;10.95;4.78;;;6.30;99.90;;;;;;2602766;54;21855;31
2023/11/16 01:42:06;;;;;;;12.00;5.30;;;6.30;99.90;;;;;;2602649;54;20030;31
2023/11/16 01:44:41;;;;;;;9.53;5.17;;;6.30;99.90;;;;;;2602835;54;21640;31
2023/11/16 01:47:15;;;;;;;13.05;5.80;;;6.30;99.90;;;;;;2621220;46;20030;31
2023/11/16 01:49:49;;;;;;;11.07;5.15;;;6.30;99.90;;;;;;2621458;46;20060;31
2023/11/16 01:52:27;;;;;;;8.50;4.80;;;6.30;99.90;;;;;;2701155;39;21481;31
2023/11/16 01:55:01;;;;;;;12.20;6.13;;;6.30;99.90;;;;;;2790708;31;21580;31
2023/11/16 01:57:38;;;;;;;17.27;7.53;;;6.30;99.90;;;;;;2602511;54;20045;31
2023/11/16 02:00:15;;;;;;;18.67;8.60;;;6.30;99.90;;;;;;2602576;54;20894;31
2023/11/16 02:02:52;;;;;;;14.40;6.53;;;6.30;99.90;;;;;;2620812;46;20034;31
2023/11/16 02:05:27;;;;;;;14.48;6.20;;;6.30;99.90;;;;;;2602484;54;20038;31
2023/11/16 02:08:08;;;;;;;18.45;7.85;;;6.20;99.90;;;;;;2701024;39;20432;31
2023/11/16 02:10:43;;;;;;;18.08;7.05;;;6.30;99.90;;;;;;2602555;54;20914;31
2023/11/16 02:13:20;;;;;;;14.67;6.77;;;6.30;99.90;;;;;;2602512;54;20046;31
2023/11/16 02:15:55;;;;;;;21.90;8.30;;;6.30;99.90;;;;;;2602498;54;20913;31
2023/11/16 02:18:31;;;;;;;15.95;6.35;;;6.30;99.90;;;;;;2602432;54;20912;31
2023/11/16 02:21:07;;;;;;;16.85;7.75;;;6.30;99.90;;;;;;2601719;54;20792;31
2023/11/16 02:23:46;;;;;;;12.63;7.75;;;6.30;99.90;;;;;;2621258;47;20037;31
2023/11/16 02:26:20;;;;;;;16.08;9.07;;;6.30;99.90;;;;;;2602472;54;20906;31
2023/11/16 02:28:55;;;;;;;15.73;7.53;;;6.30;99.90;;;;;;2602458;54;20032;31
2023/11/16 02:31:30;;;;;;;12.15;6.15;;;6.30;99.90;;;;;;2621335;47;20026;31
2023/11/16 02:34:12;;;;;;;12.70;6.93;;;6.30;99.90;;;;;;2602348;54;20054;31
2023/11/16 02:36:46;;;;;;;12.07;6.32;;;6.30;99.90;;;;;;2602607;54;20757;31
2023/11/16 02:39:23;;;;;;;15.83;7.73;;;6.30;99.90;;;;;;2602387;54;20037;31
2023/11/16 02:41:59;;;;;;;13.23;7.82;;;6.30;99.90;;;;;;2602523;54;20873;31
2023/11/16 02:44:33;;;;;;;13.03;7.50;;;6.30;99.90;;;;;;2620942;47;20175;31
2023/11/16 02:47:08;;;;;;;16.95;9.50;;;6.30;99.90;;;;;;2621162;47;20723;31
2023/11/16 02:49:43;;;;;;;15.30;8.67;;;6.30;99.90;;;;;;2602338;54;20102;31
2023/11/16 02:52:18;;;;;;;13.57;7.38;;;6.30;99.90;;;;;;2602454;54;20257;31
2023/11/16 02:54:56;;;;;;;13.63;7.13;;;6.30;99.90;;;;;;2602285;54;20026;31
2023/11/16 02:57:32;;;;;;;12.15;6.30;;;6.30;99.90;;;;;;2602241;54;20128;31
2023/11/16 03:00:11;;;;;;;13.97;6.33;;;6.30;99.90;;;;;;2602294;54;20042;31
2023/11/16 03:02:46;;;;;;;12.07;5.38;;;6.30;99.90;;;;;;2602443;54;21202;31
2023/11/16 03:05:21;;;;;;;9.73;4.88;;;6.30;99.90;;;;;;2621202;47;20032;31
2023/11/16 03:07:56;;;;;;;7.93;4.38;;;6.30;99.90;;;;;;2603143;54;20869;31
2023/11/16 03:10:37;;;;;;;8.68;4.47;;;6.40;99.90;;;;;;2621697;46;20918;31
2023/11/16 03:13:16;;;;;;;10.02;4.50;;;6.30;99.90;;;;;;2603111;54;20498;31
2023/11/16 03:15:49;;;;;;;11.20;4.68;;;6.30;99.90;;;;;;2603256;54;20033;31
2023/11/16 03:18:24;;;;;;;9.13;4.88;;;6.30;99.90;;;;;;2621597;46;20050;31
2023/11/16 03:20:59;;;;;;;9.60;4.78;;;6.30;99.90;;;;;;2621414;46;20035;31
2023/11/16 03:23:34;;;;;;;11.23;4.63;;;6.40;99.90;;;;;;2603085;54;20030;31
2023/11/16 03:26:11;;;;;;;9.70;4.83;;;6.40;99.90;;;;;;2602973;54;20030;31
2023/11/16 03:28:45;;;;;;;8.40;4.40;;;6.40;99.90;;;;;;2621608;46;21101;31
2023/11/16 03:31:20;;;;;;;8.77;4.85;;;6.40;99.90;;;;;;2621181;46;20022;31
2023/11/16 03:33:55;;;;;;;12.43;5.40;;;6.40;99.90;;;;;;2603189;54;20100;31
2023/11/16 03:36:30;;;;;;;8.43;5.00;;;6.40;99.90;;;;;;2603162;54;20921;31
2023/11/16 03:39:04;;;;;;;9.75;4.53;;;6.50;99.90;;;;;;2602982;54;20042;31
2023/11/16 03:41:40;;;;;;;10.20;5.20;;;6.50;99.90;;;;;;2602996;54;20053;31
2023/11/16 03:44:15;;;;;;;9.23;4.80;;;6.50;99.90;;;;;;2602891;54;20053;31
2023/11/16 03:46:49;;;;;;;8.05;4.35;;;6.50;99.90;;;;;;2602982;54;20387;31
2023/11/16 03:49:23;;;;;;;10.80;5.78;;;6.50;99.90;;;;;;2602987;54;20026;31
2023/11/16 03:51:57;;;;;;;8.63;4.40;;;6.50;99.90;;;;;;2621721;46;20989;31
2023/11/16 03:54:35;;;;;;;9.30;4.50;;;6.60;99.90;;;;;;2603223;54;20971;31
2023/11/16 03:57:12;;;;;;;6.20;3.30;;;6.60;99.90;;;;;;2603131;54;20555;31
2023/11/16 03:59:47;;;;;;;6.45;3.58;;;6.60;99.90;;;;;;2603087;54;20027;31
2023/11/16 04:02:21;;;;;;;8.32;4.38;;;6.70;99.90;;;;;;2602807;54;20117;31
2023/11/16 04:04:57;;;;;;;8.75;4.25;;;6.70;99.90;;;;;;2602826;54;20030;31
2023/11/16 04:07:34;;;;;;;7.70;3.90;;;6.70;99.90;;;;;;2621169;46;20883;31
2023/11/16 04:10:10;;;;;;;8.60;4.97;;;6.70;99.90;;;;;;2621610;46;20896;31
2023/11/16 04:12:47;;;;;;;9.45;5.10;;;6.80;99.90;;;;;;2602874;54;20101;31
2023/11/16 04:15:22;;;;;;;8.95;4.35;;;6.80;99.90;;;;;;2602887;54;20727;31
2023/11/16 04:17:57;;;;;;;7.45;4.10;;;6.80;99.90;;;;;;2602854;54;20030;31
2023/11/16 04:20:32;;;;;;;8.15;3.97;;;6.80;99.90;;;;;;2701200;39;20632;31
2023/11/16 04:23:06;;;;;;;8.00;4.15;;;6.80;99.90;;;;;;2772743;31;20549;31
2023/11/16 04:25:40;;;;;;;8.25;4.38;;;6.80;99.90;;;;;;2603038;54;20030;31
2023/11/16 04:28:19;;;;;;;6.15;4.05;;;6.70;99.90;;;;;;2602812;54;20761;31
2023/11/16 04:30:54;;;;;;;7.72;4.18;;;6.80;99.90;;;;;;2602779;54;20027;31
2023/11/16 04:33:29;;;;;;;7.25;4.45;;;6.80;99.90;;;;;;2621392;46;20109;31
2023/11/16 04:36:05;;;;;;;7.10;4.00;;;6.80;99.90;;;;;;2603075;54;20036;31
2023/11/16 04:38:40;;;;;;;7.55;3.95;;;6.80;99.90;;;;;;2602721;54;20023;31
2023/11/16 04:41:12;;;;;;;5.93;3.53;;;6.80;99.90;;;;;;2602894;54;21155;31
2023/11/16 04:43:54;;;;;;;7.35;4.05;;;6.80;99.90;;;;;;2621345;46;21554;31
2023/11/16 04:46:29;;;;;;;6.40;3.95;;;6.90;99.90;;;;;;2602879;54;20027;31
2023/11/16 04:49:06;;;;;;;6.95;4.28;;;6.90;99.90;;;;;;2602748;54;20041;31
2023/11/16 04:51:41;;;;;;;7.97;4.70;;;6.80;99.90;;;;;;2701414;39;21590;31
2023/11/16 04:54:15;;;;;;;8.87;5.47;;;6.90;99.90;;;;;;2602877;54;20533;31
2023/11/16 04:56:50;;;;;;;6.30;4.40;;;6.90;99.90;;;;;;2621044;46;20957;31
2023/11/16 04:59:28;;;;;;;7.72;4.97;;;6.90;99.90;;;;;;2602742;54;20022;31
2023/11/16 05:02:04;;;;;;;9.85;6.10;;;6.90;99.90;;;;;;2602822;54;21261;31
2023/11/16 05:04:40;;;;;;;10.50;5.13;;;6.90;99.90;;;;;;2701159;39;20424;31
2023/11/16 05:07:15;;;;;;;11.10;5.65;;;6.90;99.90;;;;;;2602878;54;20038;31
2023/11/16 05:09:50;;;;;;;8.43;5.53;;;6.90;99.90;;;;;;2602715;54;20033;31
2023/11/16 05:12:28;;;;;;;8.60;5.35;;;6.90;99.90;;;;;;2602664;54;20153;31
2023/11/16 05:15:06;;;;;;;11.05;6.63;;;6.90;99.90;;;;;;2602783;54;20031;31
2023/11/16 05:17:41;;;;;;;11.25;6.15;;;6.90;99.90;;;;;;2602653;54;20042;31
2023/11/16 05:20:16;;;;;;;7.80;5.20;;;6.90;99.90;;;;;;2602699;54;20072;31
2023/11/16 05:22:51;;;;;;;8.45;4.18;;;6.90;99.90;;;;;;2602542;54;20029;31
2023/11/16 05:25:26;;;;;;;5.43;3.97;;;6.90;99.90;;;;;;2602738;54;20895;31
2023/11/16 05:28:03;;;;;;;8.48;4.50;;;6.90;99.90;;;;;;2621340;46;21252;31
2023/11/16 05:30:42;;;;;;;6.30;4.40;;;6.90;99.90;;;;;;2602567;54;20570;31
2023/11/16 05:33:16;;;;;;;7.80;4.20;;;6.90;99.90;;;;;;2602632;54;20060;31
2023/11/16 05:35:53;;;;;;;8.00;4.60;;;6.90;99.90;;;;;;2621223;46;20839;31
2023/11/16 05:38:31;;;;;;;10.00;4.15;;;6.90;99.90;;;;;;2602915;54;20877;31
2023/11/16 05:41:06;;;;;;;8.40;3.93;;;6.90;99.90;;;;;;2602494;54;20026;31
2023/11/16 05:43:41;;;;;;;6.32;3.78;;;6.90;99.90;;;;;;2621313;46;20049;31
2023/11/16 05:46:18;;;;;;;8.87;3.87;;;6.90;99.90;;;;;;2602598;54;20026;31
2023/11/16 05:48:53;;;;;;;8.32;4.78;;;6.90;99.90;;;;;;2602575;54;21144;31
2023/11/16 05:51:28;;;;;;;8.33;4.70;;;6.90;99.90;;;;;;2602666;54;20026;31
2023/11/16 05:54:05;;;;;;;10.43;4.53;;;6.90;99.90;;;;;;2602733;54;20247;31
2023/11/16 05:56:42;;;;;;;9.80;4.28;;;6.90;99.90;;;;;;2602751;54;20049;31
2023/11/16 05:59:17;;;;;;;7.10;4.17;;;6.90;99.90;;;;;;2602684;54;20914;31
2023/11/16 06:01:53;;;;;;;7.43;3.43;;;6.90;99.90;;;;;;2602745;54;20101;31
2023/11/16 06:04:28;;;;;;;11.03;4.87;;;6.90;99.90;;;;;;2602339;54;20235;31
2023/11/16 06:07:04;;;;;;;8.13;4.40;;;6.90;99.90;;;;;;2602756;54;20821;31
2023/11/16 06:09:39;;;;;;;8.10;4.28;;;7.00;99.90;;;;;;2602679;54;20026;31
2023/11/16 06:20:58;;;;;;;8.43;4.05;;;7.00;99.90;;;;;;2602437;54;20030;31
2023/11/16 06:23:33;;;;;;;7.25;4.53;;;7.00;99.90;;;;;;2602541;54;20088;31
2023/11/16 06:26:08;;;;;;;7.00;4.03;;;7.00;99.90;;;;;;2621215;47;20866;31
2023/11/16 06:28:44;;;;;;;6.97;4.40;;;7.00;99.90;;;;;;2620458;47;20957;31
2023/11/16 06:31:20;;;;;;;8.05;4.72;;;7.10;99.90;;;;;;2620539;47;20068;31
2023/11/16 06:33:55;;;;;;;;;;;7.00;99.90;;;;;;2602632;54;20173;31
2023/11/16 06:36:32;;;;;;;7.80;4.80;;;7.00;99.90;;;;;;2602542;54;19941;31
2023/11/16 06:39:07;;;;;;;8.23;4.73;;;7.00;99.90;;;;;;2602464;54;20026;31
2023/11/16 06:41:42;;;;;;;7.22;4.32;;;7.00;99.90;;;;;;2618999;46;21248;31
2023/11/16 06:44:19;;;;;;;8.75;4.72;;;7.00;99.90;;;;;;2621601;46;20038;31
2023/11/16 06:46:53;;;;;;;9.20;5.27;;;7.00;99.90;;;;;;2603325;54;20085;31
2023/11/16 06:49:28;;;;;;;7.53;4.57;;;7.00;99.90;;;;;;2621766;46;20057;31
2023/11/16 06:52:06;;;;;;;9.65;4.60;;;7.00;99.90;;;;;;2622008;46;20878;31
2023/11/16 06:54:42;;;;;;;8.60;4.65;;;7.00;99.90;;;;;;2603234;54;20851;31
2023/11/16 06:57:16;;;;;;;;;;;6.90;99.90;;;;;;2603262;54;20030;31
2023/11/16 06:59:53;;;;;;;11.02;4.95;;;7.00;99.90;;;;;;2603064;54;20787;31
2023/11/16 07:02:28;;;;;;;11.20;5.25;;;6.90;99.90;;;;;;2603127;54;20026;31
2023/11/16 07:05:03;;;;;;;9.30;5.25;;;6.90;99.90;;;;;;2621828;46;20034;31
2023/11/16 07:07:41;;;;;;;13.55;6.00;;;6.90;99.90;;;;;;2621566;46;20033;31
2023/11/16 07:10:17;;;;;;;8.52;5.13;;;7.20;99.90;;;;;;2621456;46;20781;31
2023/11/16 07:12:52;;;;;;;8.15;4.13;;;7.60;99.90;;;;;;2603154;54;21574;31
2023/11/16 07:15:28;;;;;;;5.40;3.75;;;8.20;99.90;;;;;;2603245;54;20739;31
2023/11/16 07:18:04;;;;;;;7.35;3.58;;;8.60;99.90;;;;;;2602970;54;20572;31
2023/11/16 07:20:43;;;;;;;5.13;3.92;;;9.20;99.90;;;;;;2701496;39;21483;31
2023/11/16 07:23:20;;;;;;;;;;;9.80;99.90;;;;;;2621998;46;20886;31
2023/11/16 07:25:56;;;;;;;9.35;3.90;;;10.30;99.90;;;;;;2603036;54;20007;31
2023/11/16 07:28:30;;;;;;;5.83;3.67;;;10.90;99.90;;;;;;2621487;46;20060;31
2023/11/16 07:31:06;;;;;;;7.95;3.58;;;11.30;99.90;;;;;;2603134;54;20246;31
2023/11/16 07:33:40;;;;;;;8.93;4.20;;;11.70;99.90;;;;;;2602979;54;20027;31
2023/11/16 07:36:15;;;;;;;7.18;3.63;;;12.00;99.90;;;;;;2603001;54;20076;31
2023/11/16 07:38:52;;;;;;;5.50;3.25;;;12.30;99.90;;;;;;2602918;54;20757;31
2023/11/16 07:41:30;;;;;;;6.90;3.60;;;12.60;99.90;;;;;;2603080;54;20026;31
2023/11/16 07:44:09;;;;;;;9.93;3.15;;;13.00;99.90;;;;;;2603047;54;20058;31
2023/11/16 07:46:43;;;;;;;6.28;3.13;;;13.40;99.90;;;;;;2603196;54;21120;31
2023/11/16 07:49:23;;;;;;;6.17;3.40;;;13.70;99.20;;;;;;2621365;46;20775;31
2023/11/16 07:51:57;;;;;;;5.60;3.05;;;14.00;96.40;;;;;;2602841;54;20038;31
2023/11/16 07:57:36;;;;;;;6.88;2.55;;;14.40;91.90;;;;;;2602963;54;20093;31
2023/11/16 08:00:16;;;;;;;4.53;2.60;;;14.60;88.90;;;;;;2621644;46;20030;31
2023/11/16 08:05:50;;;;;;;4.35;2.38;;;14.90;87.30;;;;;;2603025;54;20034;31
2023/11/16 08:08:25;;;;;;;4.25;2.05;;;15.00;82.30;;;;;;2603435;54;20839;31
2023/11/16 08:10:58;;;;;;;5.15;2.42;;;15.10;71.30;;;;;;2621593;46;22334;31
2023/11/16 08:13:35;;;;;;;3.30;2.15;;;15.10;70.90;;;;;;2603335;54;20750;31
2023/11/16 08:16:09;;;;;;;5.22;2.83;;;15.20;82.20;;;;;;2621566;46;22355;31
2023/11/16 08:18:44;;;;;;;4.05;2.38;;;15.30;72.80;;;;;;2603187;54;20129;31
2023/11/16 08:21:19;;;;;;;4.10;2.35;;;15.40;74.40;;;;;;2603124;54;20842;31
2023/11/16 08:23:55;;;;;;;4.32;2.25;;;15.60;65.20;;;;;;2603093;54;20865;31
2023/11/16 08:26:30;;;;;;;3.30;2.20;;;15.50;70.50;;;;;;2621565;46;22356;31
2023/11/16 08:29:08;;;;;;;3.50;2.03;;;15.60;59.60;;;;;;2621584;46;20031;31
2023/11/16 08:31:44;;;;;;;5.25;2.25;;;15.60;55.50;;;;;;2701800;39;21422;31
2023/11/16 08:34:20;;;;;;;4.00;2.10;;;15.60;60.30;;;;;;2621591;46;20577;31
2023/11/16 08:36:55;;;;;;;6.03;2.60;;;15.60;59.50;;;;;;2603201;54;20023;31
2023/11/16 09:06:30;;;;;;;2.30;0.95;;;16.10;43.20;;;;;;2601995;54;20030;31
2023/11/16 09:18:38;;;;;;;2.03;1.00;;;16.00;27.90;;;;;;2610061;54;20030;31
2023/11/16 09:21:17;;;;;;;3.30;1.30;;;16.00;39.30;;;;;;2608416;46;20033;31
2023/11/16 09:23:56;;;;;;;4.65;1.60;;;16.00;38.60;;;;;;2603036;54;20862;31
2023/11/16 09:26:33;;;;;;;2.90;1.27;;;16.00;33.30;;;;;;2602250;54;20790;31
2023/11/16 09:29:12;;;;;;;2.40;1.40;;;15.90;33.60;;;;;;2621206;46;20034;31
2023/11/16 09:31:49;;;;;;;3.13;1.03;;;15.80;34.00;;;;;;2621231;46;20509;31
2023/11/16 09:55:41;;;;;;;3.42;1.30;;;15.60;31.10;;;;;;2610594;54;20023;31
2023/11/16 09:58:21;;;;;;;6.10;1.55;;;15.40;29.30;;;;;;2620814;46;20030;31
2023/11/16 10:07:04;;;;;;;2.65;1.20;;;15.40;29.00;;;;;;2620366;46;20884;31
2023/11/16 10:09:45;;;;;;;2.22;0.98;;;15.40;28.30;;;;;;2602718;54;20105;31
2023/11/16 10:12:26;;;;;;;4.35;1.65;;;15.30;28.20;;;;;;2602596;54;20114;31
2023/11/16 11:24:29;;;;;;;1.92;0.80;;;12.70;44.70;;;;;;2603002;54;21170;31
2023/11/16 11:27:08;;;;;;;2.90;0.95;;;12.70;51.90;;;;;;2621057;46;20081;31
2023/11/16 11:35:35;;;;;;;2.10;0.95;;;12.80;52.20;;;;;;2603345;54;20775;31
2023/11/16 11:50:34;;;;;;;3.05;1.02;;;12.80;54.60;;;;;;2603277;54;20906;31
2023/11/16 11:53:19;;;;;;;4.40;2.25;;;12.70;53.50;;;;;;2603341;54;20846;31
2023/11/16 11:55:54;;;;;;;2.10;0.77;;;12.70;60.30;;;;;;2603154;54;20846;31
2023/11/16 11:58:32;;;;;;;3.03;1.20;;;12.70;57.60;;;;;;2621358;46;20874;31
2023/11/16 12:01:12;;;;;;;1.85;0.80;;;12.70;58.00;;;;;;2608571;46;20033;31
2023/11/16 12:03:57;;;;;;;2.97;1.23;;;12.60;65.30;;;;;;2603057;54;20041;31
2023/11/16 12:18:35;;;;;;;2.53;0.63;;;12.40;57.20;;;;;;2602947;54;20026;31
2023/11/16 14:08:22;;;;;;;6.70;2.67;;;10.50;99.90;;;;;;2601800;54;20759;31
2023/11/16 14:11:01;;;;;;;6.28;3.05;;;10.40;99.90;;;;;;2620855;47;21173;31
2023/11/16 14:13:41;;;;;;;7.25;3.05;;;10.50;99.90;;;;;;2620983;47;20494;31
2023/11/16 14:18:54;;;;;;;3.50;2.53;;;10.40;99.90;;;;;;2602371;54;20930;31
2023/11/16 14:21:29;;;;;;;7.03;3.17;;;10.40;99.90;;;;;;2602322;54;20049;31
2023/11/16 14:24:10;;;;;;;7.50;3.30;;;10.40;99.90;;;;;;2602156;54;21668;31
2023/11/16 14:27:00;;;;;;;4.53;2.80;;;10.30;99.90;;;;;;2620738;47;21176;31
2023/11/16 14:29:41;;;;;;;5.57;3.10;;;10.30;99.90;;;;;;2602426;54;21175;31
2023/11/16 14:32:22;;;;;;;7.47;3.38;;;10.30;99.90;;;;;;2602695;54;20033;31
2023/11/16 14:34:58;;;;;;;4.93;2.92;;;10.30;99.90;;;;;;2602226;54;21617;31
2023/11/16 14:37:53;;;;;;;7.65;3.00;;;10.20;99.90;;;;;;2602507;54;20535;31
2023/11/16 14:40:28;;;;;;;9.05;3.58;;;10.20;99.90;;;;;;2620931;47;20588;31
2023/11/16 14:43:11;;;;;;;5.05;3.20;;;10.20;99.90;;;;;;2602277;54;20027;31
2023/11/16 14:45:56;;;;;;;5.40;2.60;;;10.20;99.90;;;;;;2601510;54;20860;31
2023/11/16 14:48:37;;;;;;;4.07;2.35;;;10.10;99.90;;;;;;2602262;54;20882;31
2023/11/16 15:00:26;;;;;;;6.95;2.80;;;10.00;99.90;;;;;;2601603;54;20030;31
2023/11/16 15:03:17;;;;;;;9.57;4.85;;;10.00;99.90;;;;;;2602968;54;20984;31
2023/11/16 15:17:22;;;;;;;5.30;1.40;;;9.70;99.90;;;;;;2602950;54;20030;31
2023/11/16 15:19:57;;;;;;;2.90;1.30;;;9.60;99.90;;;;;;2621381;46;20026;31
2023/11/16 15:22:48;;;;;;;4.60;1.23;;;9.50;99.90;;;;;;2602809;54;20081;31
2023/11/16 15:44:21;;;;;;;2.00;0.57;;;9.00;99.90;;;;;;2611867;54;19930;31
2023/11/16 15:46:57;;;;;;;1.25;0.40;;;8.90;99.90;;;;;;2602791;54;20026;31
2023/11/16 15:49:32;;;;;;;1.23;0.47;;;8.90;99.90;;;;;;2602733;54;20038;31
2023/11/16 15:52:08;;;;;;;1.50;0.75;;;8.90;99.90;;;;;;2621252;46;20057;31
2023/11/16 15:54:46;;;;;;;1.05;0.50;;;8.90;99.90;;;;;;2602984;54;20028;31
2023/11/16 16:16:13;;;;;;;4.20;1.90;;;8.80;99.90;;;;;;2621314;46;20038;31
2023/11/16 16:18:51;;;;;;;7.75;1.90;;;8.80;99.90;;;;;;2620950;46;20030;31
2023/11/16 16:21:27;;;;;;;5.05;2.00;;;8.80;99.90;;;;;;2620818;46;20826;31
2023/11/16 16:30:31;;;;;;;2.40;1.00;;;8.80;99.90;;;;;;2610923;54;20470;31
2023/11/16 16:33:11;;;;;;;4.00;1.10;;;8.80;99.90;;;;;;2602952;54;22125;31
2023/11/16 16:35:49;;;;;;;3.40;1.50;;;8.80;99.90;;;;;;2621389;46;20521;31
2023/11/16 16:38:27;;;;;;;5.13;1.30;;;8.80;99.90;;;;;;2602939;54;20943;31
2023/11/16 16:41:05;;;;;;;3.33;1.10;;;8.80;99.90;;;;;;2601885;54;20098;31
2023/11/16 16:43:41;;;;;;;4.53;1.80;;;8.80;99.90;;;;;;2620898;46;21101;31
2023/11/16 16:46:21;;;;;;;4.15;1.75;;;8.70;99.90;;;;;;2700896;39;20577;31
2023/11/16 16:49:01;;;;;;;3.20;1.60;;;8.70;99.90;;;;;;2602578;54;20057;31
2023/11/16 16:51:46;;;;;;;4.35;2.60;;;8.60;99.90;;;;;;2602882;54;21159;31
2023/11/16 17:00:26;;;;;;;7.15;3.15;;;8.60;99.90;;;;;;2602501;54;20053;31
2023/11/16 17:03:02;;;;;;;18.55;8.55;;;8.50;99.90;;;;;;2602691;54;20896;31
2023/11/16 17:05:42;;;;;;;22.67;10.63;;;8.40;99.90;;;;;;2602517;54;20892;31
2023/11/16 17:11:23;;;;;;;12.63;7.47;;;8.40;99.90;;;;;;2611547;54;20015;31
2023/11/16 17:13:57;;;;;;;14.82;7.38;;;8.30;99.90;;;;;;2602814;54;20831;31
2023/11/16 17:16:32;;;;;;;11.90;7.40;;;8.30;99.90;;;;;;2621329;46;20915;31
2023/11/16 17:19:10;;;;;;;17.10;8.50;;;8.20;99.90;;;;;;2602721;54;20057;31
2023/11/16 17:22:00;;;;;;;19.90;8.10;;;8.20;99.90;;;;;;2602786;54;21536;31
2023/11/16 17:27:21;;;;;;;;;;;8.10;99.90;;;;;;2602643;54;20077;31
2023/11/16 18:17:43;;;;;;;27.60;14.93;;;7.40;99.90;;;;;;2610395;54;20258;31
2023/11/16 18:20:23;;;;;;;28.20;13.33;;;7.40;99.90;;;;;;2601810;54;20673;31
2023/11/16 18:23:23;;;;;;;23.75;12.02;;;7.40;99.90;;;;;;2602396;54;20030;31
2023/11/16 18:29:04;;;;;;;13.85;7.97;;;7.30;99.90;;;;;;2610327;54;20018;31
2023/11/16 18:34:44;;;;;;;31.35;14.15;;;7.30;99.90;;;;;;2602187;54;20798;31
2023/11/16 18:37:23;;;;;;;38.55;17.90;;;7.20;99.90;;;;;;2701664;39;20546;31
2023/11/16 18:40:06;;;;;;;29.85;13.98;;;7.20;99.90;;;;;;2701925;39;20484;31
2023/11/16 18:42:43;;;;;;;17.63;10.07;;;7.20;99.90;;;;;;2621822;46;21405;31
2023/11/16 18:45:21;;;;;;;;;;;7.20;99.90;;;;;;2602534;54;20023;31
2023/11/16 19:07:08;;;;;;;20.08;10.15;;;7.00;99.90;;;;;;2626400;53;20103;31
2023/11/16 19:09:45;;;;;;;19.60;9.32;;;7.30;99.90;;;;;;2587328;54;20144;31
2023/11/16 19:12:28;;;;;;;17.77;9.37;;;7.30;99.90;;;;;;2616286;38;22161;31
2023/11/16 19:15:14;;;;;;;14.77;9.13;;;7.30;99.90;;;;;;2586613;54;20475;31
2023/11/16 19:17:53;;;;;;;15.03;8.07;;;7.20;99.90;;;;;;2587727;54;20938;31
2023/11/16 19:20:29;;;;;;;15.70;7.75;;;7.20;99.90;;;;;;2587830;54;20030;31
2023/11/16 19:23:12;;;;;;;17.90;9.07;;;7.20;99.90;;;;;;2587675;54;20068;31
2023/11/16 19:25:52;;;;;;;16.45;9.65;;;7.20;99.90;;;;;;2587770;54;20088;31
2023/11/16 19:28:36;;;;;;;12.57;7.20;;;7.20;99.90;;;;;;2587593;54;20875;31
2023/11/16 19:31:12;;;;;;;18.00;9.50;;;7.20;99.90;;;;;;2606501;46;22324;31
2023/11/16 19:33:50;;;;;;;15.80;8.50;;;7.40;99.90;;;;;;2598474;46;20887;31
2023/11/16 19:36:26;;;;;;;15.20;8.80;;;7.40;99.90;;;;;;2587750;54;20754;31
2023/11/16 19:39:07;;;;;;;13.68;8.13;;;7.40;99.90;;;;;;2587822;54;20293;31
2023/11/16 19:41:45;;;;;;;16.95;9.77;;;7.40;99.90;;;;;;2587429;54;20038;31
2023/11/16 19:44:19;;;;;;;14.50;8.95;;;7.40;99.90;;;;;;2588373;54;22477;31
2023/11/16 19:46:53;;;;;;;15.80;8.80;;;7.40;99.90;;;;;;2606336;46;20761;31
2023/11/16 19:49:27;;;;;;;15.10;8.10;;;7.40;99.90;;;;;;2605740;46;21113;31
2023/11/16 19:52:00;;;;;;;16.92;8.13;;;7.30;99.90;;;;;;2587547;54;20054;31
2023/11/16 19:54:38;;;;;;;17.88;9.02;;;7.20;99.90;;;;;;2587664;54;20869;31
2023/11/16 19:57:12;;;;;;;153.75;20.85;;;7.20;99.90;;;;;;2588108;54;22288;31
2023/11/16 19:59:44;;;;;;;17.92;10.68;;;7.20;99.90;;;;;;2587932;54;20337;31
2023/11/16 20:02:17;;;;;;;16.60;10.50;;;7.20;99.90;;;;;;2588006;54;20966;31
2023/11/16 20:04:53;;;;;;;17.77;10.68;;;7.30;99.90;;;;;;2587905;54;20053;31
2023/11/16 20:07:28;;;;;;;;;;;7.20;99.90;;;;;;2603668;46;20881;31
2023/11/16 20:10:07;;;;;;;22.00;12.00;;;7.20;99.90;;;;;;2584305;54;19950;31
2023/11/16 20:12:41;;;;;;;33.53;16.92;;;7.20;99.90;;;;;;2584239;54;21211;31
2023/11/16 20:15:15;;;;;;;34.45;18.42;;;7.10;99.90;;;;;;2584018;54;20034;31
2023/11/16 20:17:48;;;;;;;40.25;18.95;;;7.00;99.90;;;;;;2584184;54;21125;31
2023/11/16 20:20:26;;;;;;;36.92;19.38;;;6.90;99.90;;;;;;2584461;54;20345;31
2023/11/16 20:23:01;;;;;;;46.03;22.08;;;6.90;99.90;;;;;;2589889;39;20228;31
2023/11/16 20:25:38;;;;;;;56.95;24.95;;;6.90;99.90;;;;;;2584328;54;21255;31
2023/11/16 20:28:12;;;;;;;46.42;24.20;;;6.90;99.90;;;;;;2602612;46;20065;31
2023/11/16 20:30:45;;;;;;;44.63;23.50;;;6.80;99.90;;;;;;2584243;54;20985;31
2023/11/16 20:33:20;;;;;;;36.03;21.00;;;6.80;99.90;;;;;;2584034;54;20034;31
2023/11/16 20:35:55;;;;;;;43.37;21.53;;;6.80;99.90;;;;;;2584045;54;21200;31
2023/11/16 20:38:30;;;;;;;44.90;22.10;;;6.80;99.90;;;;;;2602253;46;20125;31
2023/11/16 20:41:10;;;;;;;40.50;21.85;;;6.80;99.90;;;;;;2584511;39;20387;31
2023/11/16 20:43:45;;;;;;;39.17;22.08;;;6.80;99.90;;;;;;2583739;54;20056;31
2023/11/16 20:46:27;;;;;;;40.37;23.63;;;6.80;99.90;;;;;;2584107;54;21198;31
2023/11/16 20:49:01;;;;;;;49.03;31.27;;;6.80;99.90;;;;;;2583937;54;20072;31
2023/11/16 20:51:34;;;;;;;56.70;35.95;;;6.80;99.90;;;;;;2584069;54;22156;31
2023/11/16 20:57:10;;;;;;;38.93;23.10;;;6.70;99.90;;;;;;2583271;54;20931;31
2023/11/16 20:59:49;;;;;;;36.70;19.90;;;6.70;99.90;;;;;;2584237;54;21127;31
2023/11/16 21:02:23;;;;;;;40.55;20.88;;;6.70;99.90;;;;;;2602028;46;20995;31
2023/11/16 21:04:58;;;;;;;36.25;18.80;;;6.60;99.90;;;;;;2583909;54;21031;31
2023/11/16 21:07:33;;;;;;;35.00;18.10;;;6.60;99.90;;;;;;2592645;39;22090;31
2023/11/16 21:10:11;;;;;;;34.80;16.90;;;6.60;99.90;;;;;;2584398;54;20926;31
2023/11/16 21:12:49;;;;;;;39.20;18.85;;;6.60;99.90;;;;;;2602566;46;20336;31
2023/11/16 21:15:25;;;;;;;39.45;19.60;;;6.60;99.90;;;;;;2584138;54;21002;31